createdAt,value
2022-12-06T00:01:13.531Z,98733.59
2022-12-06T00:03:41.199Z,98735.97
2022-12-06T00:06:17.280Z,98736.13
2022-12-06T00:08:44.944Z,98736.84
2022-12-06T00:11:17.466Z,98740.97
2022-12-06T00:13:44.502Z,98742.13
2022-12-06T00:16:16.221Z,98736.25
2022-12-06T00:18:44.698Z,98739.78
2022-12-06T00:21:23.517Z,98727.44
2022-12-06T00:23:58.033Z,98727.81
2022-12-06T00:26:25.617Z,98730.97
2022-12-06T00:28:54.219Z,98726.34
2022-12-06T00:31:22.605Z,98726.19
2022-12-06T00:33:49.910Z,98729.34
2022-12-06T00:36:19.490Z,98727.00
2022-12-06T00:38:46.733Z,98727.00
2022-12-06T00:41:15.773Z,98721.94
2022-12-06T00:43:43.145Z,98717.75
2022-12-06T00:46:13.295Z,98712.16
2022-12-06T00:48:40.007Z,98717.75
2022-12-06T00:51:06.527Z,98709.72
2022-12-06T00:53:33.048Z,98706.44
2022-12-06T00:55:59.587Z,98707.59
2022-12-06T00:58:26.135Z,98709.16
2022-12-06T01:00:53.318Z,98699.94
2022-12-06T01:03:19.969Z,98696.94
2022-12-06T01:05:49.074Z,98702.28
2022-12-06T01:08:16.950Z,98701.88
2022-12-06T01:10:52.444Z,98697.50
2022-12-06T01:13:19.249Z,98706.06
2022-12-06T01:15:45.763Z,98700.03
2022-12-06T01:18:12.300Z,98706.03
2022-12-06T01:20:38.746Z,98709.50
2022-12-06T01:23:05.256Z,98711.91
2022-12-06T01:25:35.844Z,98712.88
2022-12-06T01:28:02.816Z,98708.53
2022-12-06T01:30:29.566Z,98707.88
2022-12-06T01:32:56.289Z,98707.69
2022-12-06T01:35:22.961Z,98708.53
2022-12-06T01:37:49.481Z,98705.69
2022-12-06T01:40:15.962Z,98706.72
2022-12-06T01:42:42.433Z,98712.22
2022-12-06T01:45:09.999Z,98702.25
2022-12-06T01:47:42.908Z,98702.38
2022-12-06T01:50:18.516Z,98703.72
2022-12-06T01:52:48.113Z,98701.94
2022-12-06T01:55:15.853Z,98698.22
2022-12-06T01:57:43.085Z,98696.72
2022-12-06T02:00:10.106Z,98690.00
2022-12-06T02:02:39.589Z,98694.44
2022-12-06T02:05:07.655Z,98680.22
2022-12-06T02:07:34.594Z,98690.69
2022-12-06T02:10:02.435Z,98684.06
2022-12-06T02:12:29.073Z,98691.63
2022-12-06T02:14:56.660Z,98687.56
2022-12-06T02:17:44.907Z,98688.91
2022-12-06T02:20:35.841Z,98692.78
2022-12-06T02:23:24.777Z,98688.91
2022-12-06T02:26:12.600Z,98689.22
2022-12-06T02:28:51.244Z,98697.97
2022-12-06T02:31:36.451Z,98691.56
2022-12-06T02:34:16.259Z,98691.72
2022-12-06T02:36:53.783Z,98693.78
2022-12-06T02:39:30.257Z,98693.19
2022-12-06T02:42:03.631Z,98686.06
2022-12-06T02:44:47.216Z,98683.59
2022-12-06T02:47:16.388Z,98685.84
2022-12-06T02:49:47.326Z,98683.50
2022-12-06T02:52:14.436Z,98683.66
2022-12-06T02:54:43.932Z,98685.69
2022-12-06T02:57:10.460Z,98684.75
2022-12-06T02:59:36.944Z,98696.28
2022-12-06T03:02:07.402Z,98684.06
2022-12-06T03:04:52.681Z,98684.47
2022-12-06T03:07:40.257Z,98683.66
2022-12-06T03:10:33.390Z,98685.31
2022-12-06T03:13:18.556Z,98680.06
2022-12-06T03:15:57.906Z,98688.75
2022-12-06T03:19:05.025Z,98686.81
2022-12-06T03:21:33.754Z,98686.81
2022-12-06T03:24:00.577Z,98674.31
2022-12-06T03:26:31.568Z,98679.38
2022-12-06T03:29:01.820Z,98674.44
2022-12-06T03:31:32.092Z,98669.38
2022-12-06T03:34:04.741Z,98681.47
2022-12-06T03:36:32.374Z,98673.41
2022-12-06T03:39:02.293Z,98677.63
2022-12-06T03:41:35.812Z,98669.66
2022-12-06T03:44:02.342Z,98663.78
2022-12-06T03:46:34.632Z,98666.66
2022-12-06T03:49:06.658Z,98663.06
2022-12-06T03:51:36.205Z,98658.94
2022-12-06T03:54:05.408Z,98652.56
2022-12-06T03:56:36.686Z,98659.41
2022-12-06T03:59:10.589Z,98661.34
2022-12-06T04:01:38.269Z,98661.72
2022-12-06T04:04:05.827Z,98664.88
2022-12-06T04:06:32.637Z,98650.03
2022-12-06T04:09:19.063Z,98657.16
2022-12-06T04:11:46.146Z,98657.34
2022-12-06T04:14:12.663Z,98660.19
2022-12-06T04:16:57.800Z,98662.53
2022-12-06T04:19:24.239Z,98665.03
2022-12-06T04:22:08.989Z,98661.31
2022-12-06T04:24:35.429Z,98657.53
2022-12-06T04:27:20.604Z,98654.81
2022-12-06T04:30:05.353Z,98663.84
2022-12-06T04:32:50.621Z,98654.94
2022-12-06T04:35:35.602Z,98654.16
2022-12-06T04:38:21.016Z,98650.22
2022-12-06T04:40:48.208Z,98657.09
2022-12-06T04:43:33.348Z,98655.31
2022-12-06T04:45:59.842Z,98654.78
2022-12-06T04:48:26.450Z,98654.94
2022-12-06T04:50:53.106Z,98652.22
2022-12-06T04:53:19.610Z,98649.09
2022-12-06T04:55:47.351Z,98648.94
2022-12-06T04:58:14.841Z,98641.41
2022-12-06T05:00:44.288Z,98647.69
2022-12-06T05:03:12.170Z,98642.53
2022-12-06T05:05:38.784Z,98646.84
2022-12-06T05:08:05.734Z,98643.41
2022-12-06T05:10:32.997Z,98648.09
2022-12-06T05:13:00.237Z,98646.34
2022-12-06T05:15:29.292Z,98642.38
2022-12-06T05:17:56.423Z,98637.56
2022-12-06T05:20:23.125Z,98638.53
2022-12-06T05:22:49.748Z,98631.41
2022-12-06T05:25:17.035Z,98636.19
2022-12-06T05:27:44.763Z,98637.66
2022-12-06T05:30:12.087Z,98639.47
2022-12-06T05:32:40.128Z,98638.31
2022-12-06T05:35:07.991Z,98645.78
2022-12-06T05:37:34.489Z,98640.63
2022-12-06T05:40:01.176Z,98640.63
2022-12-06T05:42:27.888Z,98635.09
2022-12-06T05:44:54.331Z,98630.75
2022-12-06T05:47:20.793Z,98630.47
2022-12-06T05:49:47.246Z,98637.59
2022-12-06T05:52:13.709Z,98643.31
2022-12-06T05:54:40.159Z,98640.63
2022-12-06T05:57:06.622Z,98643.88
2022-12-06T05:59:33.498Z,98652.00
2022-12-06T06:02:00.068Z,98651.13
2022-12-06T06:04:26.610Z,98658.41
2022-12-06T06:06:53.246Z,98656.34
2022-12-06T06:09:19.833Z,98658.63
2022-12-06T06:11:46.286Z,98660.31
2022-12-06T06:14:12.807Z,98660.19
2022-12-06T06:16:39.329Z,98663.72
2022-12-06T06:19:05.860Z,98660.84
2022-12-06T06:21:32.429Z,98663.47
2022-12-06T06:23:59.710Z,98660.75
2022-12-06T06:26:26.159Z,98665.94
2022-12-06T06:28:52.608Z,98664.97
2022-12-06T06:31:19.144Z,98661.28
2022-12-06T06:33:45.771Z,98668.28
2022-12-06T06:36:12.238Z,98663.88
2022-12-06T06:38:38.727Z,98671.97
2022-12-06T06:41:06.683Z,98671.03
2022-12-06T06:43:33.770Z,98671.03
2022-12-06T06:46:02.687Z,98662.91
2022-12-06T06:48:31.638Z,98661.16
2022-12-06T06:51:24.476Z,98665.56
2022-12-06T06:53:50.978Z,98667.84
2022-12-06T06:56:17.485Z,98676.41
2022-12-06T06:58:44.031Z,98672.69
2022-12-06T07:01:17.723Z,98672.44
2022-12-06T07:03:44.404Z,98666.78
2022-12-06T07:06:11.983Z,98674.59
2022-12-06T07:08:40.342Z,98668.47
2022-12-06T07:11:07.816Z,98666.31
2022-12-06T07:13:34.634Z,98665.13
2022-12-06T07:16:04.268Z,98666.66
2022-12-06T07:18:30.739Z,98670.63
2022-12-06T07:21:03.943Z,98667.75
2022-12-06T07:23:32.079Z,98675.94
2022-12-06T07:26:19.852Z,98678.16
2022-12-06T07:28:47.671Z,98676.66
2022-12-06T07:31:26.221Z,98665.56
2022-12-06T07:33:55.456Z,98674.88
2022-12-06T07:36:23.241Z,98670.75
2022-12-06T07:38:52.007Z,98671.03
2022-12-06T07:41:39.160Z,98668.69
2022-12-06T07:44:33.565Z,98663.19
2022-12-06T07:47:00.776Z,98661.66
2022-12-06T07:49:27.904Z,98661.72
2022-12-06T07:51:55.027Z,98662.25
2022-12-06T07:54:22.790Z,98666.34
2022-12-06T07:56:49.280Z,98666.09
2022-12-06T07:59:15.857Z,98668.28
2022-12-06T08:01:43.247Z,98669.59
2022-12-06T08:04:09.980Z,98664.72
2022-12-06T08:06:37.058Z,98662.66
2022-12-06T08:09:03.964Z,98669.66
2022-12-06T08:11:30.595Z,98668.84
2022-12-06T08:13:57.102Z,98663.75
2022-12-06T08:16:23.717Z,98660.00
2022-12-06T08:18:50.258Z,98661.50
2022-12-06T08:21:17.534Z,98665.09
2022-12-06T08:23:44.218Z,98669.34
2022-12-06T08:26:14.265Z,98662.59
2022-12-06T08:28:42.840Z,98668.56
2022-12-06T08:31:12.425Z,98667.59
2022-12-06T08:33:38.954Z,98664.72
2022-12-06T08:36:10.994Z,98662.50
2022-12-06T08:38:38.125Z,98664.50
2022-12-06T08:41:31.464Z,98674.59
2022-12-06T08:43:59.976Z,98657.88
2022-12-06T08:46:27.642Z,98675.47
2022-12-06T08:48:54.175Z,98669.22
2022-12-06T08:51:21.042Z,98671.63
2022-12-06T08:53:47.693Z,98669.22
2022-12-06T08:56:14.502Z,98668.59
2022-12-06T08:58:41.014Z,98666.53
2022-12-06T09:01:12.421Z,98669.63
2022-12-06T09:03:39.227Z,98676.59
2022-12-06T09:06:06.243Z,98676.50
2022-12-06T09:08:32.719Z,98675.69
2022-12-06T09:10:59.193Z,98679.00
2022-12-06T09:13:25.685Z,98677.53
2022-12-06T09:15:52.202Z,98685.47
2022-12-06T09:18:18.707Z,98681.56
2022-12-06T09:20:45.200Z,98685.16
2022-12-06T09:23:11.791Z,98688.94
2022-12-06T09:25:41.206Z,98678.81
2022-12-06T09:28:08.004Z,98683.28
2022-12-06T09:30:34.482Z,98679.50
2022-12-06T09:33:00.982Z,98688.97
2022-12-06T09:35:27.475Z,98690.94
2022-12-06T09:37:54.112Z,98688.88
2022-12-06T09:40:31.171Z,98697.16
2022-12-06T09:43:27.308Z,98703.66
2022-12-06T09:46:13.582Z,98695.88
2022-12-06T09:48:49.231Z,98699.97
2022-12-06T09:51:38.985Z,98701.84
2022-12-06T09:54:58.756Z,98703.75
2022-12-06T09:57:41.913Z,98704.81
2022-12-06T10:00:20.772Z,98702.31
2022-12-06T10:03:04.586Z,98700.56
2022-12-06T10:05:52.105Z,98696.69
2022-12-06T10:08:24.950Z,98700.25
2022-12-06T10:11:08.434Z,98690.88
2022-12-06T10:13:44.171Z,98695.13
2022-12-06T10:16:46.299Z,98690.34
2022-12-06T10:19:44.890Z,98689.03
2022-12-06T10:22:22.363Z,98687.84
2022-12-06T10:25:17.239Z,98681.25
2022-12-06T10:28:06.359Z,98683.56
2022-12-06T10:30:39.862Z,98681.97
2022-12-06T10:33:28.346Z,98678.72
2022-12-06T10:36:01.195Z,98681.56
2022-12-06T10:38:46.834Z,98691.75
2022-12-06T10:41:22.360Z,98686.06
2022-12-06T10:44:02.126Z,98685.38
2022-12-06T10:47:01.133Z,98681.78
2022-12-06T10:49:58.396Z,98681.81
2022-12-06T10:52:46.529Z,98685.63
2022-12-06T10:55:24.834Z,98687.47
2022-12-06T10:58:09.846Z,98682.63
2022-12-06T11:00:47.184Z,98691.03
2022-12-06T11:03:21.211Z,98685.56
2022-12-06T11:06:07.078Z,98694.38
2022-12-06T11:08:48.993Z,98690.59
2022-12-06T11:11:21.965Z,98691.56
2022-12-06T11:13:56.519Z,98688.66
2022-12-06T11:16:45.122Z,98691.06
2022-12-06T11:19:34.104Z,98687.56
2022-12-06T11:22:04.299Z,98684.31
2022-12-06T11:24:35.299Z,98685.22
2022-12-06T11:27:22.576Z,98688.00
2022-12-06T11:29:50.399Z,98689.19
2022-12-06T11:32:18.865Z,98683.06
2022-12-06T11:34:53.927Z,98685.09
2022-12-06T11:37:31.449Z,98681.50
2022-12-06T11:40:26.711Z,98679.66
2022-12-06T11:42:54.056Z,98675.53
2022-12-06T11:45:32.547Z,98675.00
2022-12-06T11:48:05.343Z,98666.38
2022-12-06T11:50:35.694Z,98671.72
2022-12-06T11:53:13.585Z,98671.88
2022-12-06T11:55:44.057Z,98658.59
2022-12-06T11:58:19.793Z,98656.59
2022-12-06T12:00:58.749Z,98662.25
2022-12-06T12:03:36.391Z,98662.44
2022-12-06T12:06:24.066Z,98665.00
2022-12-06T12:09:06.222Z,98656.91
2022-12-06T12:11:36.402Z,98655.56
2022-12-06T12:14:07.729Z,98652.50
2022-12-06T12:16:46.432Z,98649.88
2022-12-06T12:19:35.590Z,98647.91
2022-12-06T12:22:34.064Z,98647.97
2022-12-06T12:25:18.295Z,98646.88
2022-12-06T12:27:48.539Z,98650.50
2022-12-06T12:30:14.959Z,98646.19
2022-12-06T12:32:42.593Z,98641.41
2022-12-06T12:35:21.339Z,98647.81
2022-12-06T12:37:51.251Z,98644.94
2022-12-06T12:40:27.370Z,98643.03
2022-12-06T12:43:05.315Z,98644.88
2022-12-06T12:45:32.447Z,98642.09
2022-12-06T12:48:01.638Z,98636.81
2022-12-06T12:50:30.817Z,98641.66
2022-12-06T12:52:57.993Z,98632.13
2022-12-06T12:55:30.109Z,98637.94
2022-12-06T12:57:59.081Z,98638.75
2022-12-06T13:00:28.444Z,98634.53
2022-12-06T13:03:14.172Z,98639.84
2022-12-06T13:05:52.594Z,98635.81
2022-12-06T13:08:26.967Z,98641.38
2022-12-06T13:10:59.313Z,98637.44
2022-12-06T13:13:31.220Z,98640.06
2022-12-06T13:15:58.666Z,98639.28
2022-12-06T13:18:29.998Z,98631.53
2022-12-06T13:20:59.144Z,98624.53
2022-12-06T13:23:31.209Z,98628.56
2022-12-06T13:26:16.427Z,98625.25
2022-12-06T13:28:54.560Z,98632.63
2022-12-06T13:31:25.048Z,98634.38
2022-12-06T13:33:56.556Z,98633.44
2022-12-06T13:36:25.181Z,98628.72
2022-12-06T13:38:51.761Z,98626.94
2022-12-06T13:41:55.222Z,98623.38
2022-12-06T13:45:00.011Z,98632.84
2022-12-06T13:47:26.430Z,98629.06
2022-12-06T13:50:12.636Z,98629.09
2022-12-06T13:52:42.134Z,98630.72
2022-12-06T13:55:23.564Z,98620.81
2022-12-06T13:58:10.263Z,98627.31
2022-12-06T14:00:40.093Z,98625.81
2022-12-06T14:03:23.048Z,98630.41
2022-12-06T14:06:12.268Z,98623.88
2022-12-06T14:08:47.208Z,98632.09
2022-12-06T14:11:16.995Z,98624.25
2022-12-06T14:14:08.879Z,98630.53
2022-12-06T14:17:00.459Z,98626.88
2022-12-06T14:19:45.489Z,98627.34
2022-12-06T14:22:21.025Z,98624.34
2022-12-06T14:29:27.421Z,98632.28
2022-12-06T14:31:53.946Z,98628.16
2022-12-06T14:34:29.055Z,98635.34
2022-12-06T14:36:57.472Z,98634.94
2022-12-06T14:39:27.559Z,98626.88
2022-12-06T14:42:16.114Z,98630.31
2022-12-06T14:44:57.390Z,98629.94
2022-12-06T14:47:28.526Z,98634.72
2022-12-06T14:50:16.701Z,98631.16
2022-12-06T14:53:16.485Z,98621.31
2022-12-06T14:55:57.998Z,98628.56
2022-12-06T14:58:36.988Z,98624.16
2022-12-06T15:01:24.222Z,98629.16
2022-12-06T15:04:06.202Z,98627.50
2022-12-06T15:06:35.394Z,98629.16
2022-12-06T15:09:01.733Z,98624.09
2022-12-06T15:11:52.671Z,98627.81
2022-12-06T15:14:23.102Z,98618.41
2022-12-06T15:17:02.204Z,98624.38
2022-12-06T15:19:40.334Z,98630.59
2022-12-06T15:22:24.349Z,98628.84
2022-12-06T15:24:54.624Z,98623.56
2022-12-06T15:27:23.148Z,98628.13
2022-12-06T15:29:50.299Z,98621.28
2022-12-06T15:32:19.368Z,98618.78
2022-12-06T15:34:46.557Z,98626.78
2022-12-06T15:37:38.269Z,98620.28
2022-12-06T15:40:02.020Z,98623.88
2022-12-06T15:42:28.672Z,98628.94
2022-12-06T15:44:55.309Z,98624.28
2022-12-06T15:47:21.791Z,98633.28
2022-12-06T15:49:50.862Z,98627.81
2022-12-06T15:52:19.768Z,98629.16
2022-12-06T15:54:46.285Z,98626.94
2022-12-06T15:57:12.813Z,98628.72
2022-12-06T15:59:39.209Z,98626.13
2022-12-06T16:02:15.273Z,98630.16
2022-12-06T16:04:41.996Z,98635.81
2022-12-06T16:07:08.869Z,98631.38
2022-12-06T16:09:35.294Z,98631.28
2022-12-06T16:12:01.717Z,98627.78
2022-12-06T16:14:28.148Z,98632.59
2022-12-06T16:16:54.591Z,98631.25
2022-12-06T16:19:21.036Z,98632.78
2022-12-06T16:21:56.191Z,98634.13
2022-12-06T16:24:23.015Z,98644.69
2022-12-06T16:26:49.617Z,98645.81
2022-12-06T16:29:25.012Z,98641.81
2022-12-06T16:31:53.088Z,98635.88
2022-12-06T16:34:20.200Z,98632.66
2022-12-06T16:37:08.995Z,98644.69
2022-12-06T16:39:35.688Z,98636.25
2022-12-06T16:42:03.889Z,98635.44
2022-12-06T16:44:30.400Z,98634.59
2022-12-06T16:46:57.357Z,98636.50
2022-12-06T16:49:45.945Z,98621.91
2022-12-06T16:52:14.283Z,98624.16
2022-12-06T16:54:41.682Z,98623.19
2022-12-06T16:57:09.927Z,98624.84
2022-12-06T16:59:36.760Z,98620.28
2022-12-06T17:02:06.015Z,98619.63
2022-12-06T17:04:34.958Z,98627.06
2022-12-06T17:07:01.380Z,98620.91
2022-12-06T17:09:27.818Z,98619.03
2022-12-06T17:12:03.461Z,98622.09
2022-12-06T17:14:30.186Z,98626.41
2022-12-06T17:16:57.124Z,98621.84
2022-12-06T17:19:28.754Z,98628.84
2022-12-06T17:21:55.510Z,98624.59
2022-12-06T17:24:25.496Z,98624.63
2022-12-06T17:26:54.039Z,98631.44
2022-12-06T17:29:20.888Z,98629.13
2022-12-06T17:31:47.442Z,98625.88
2022-12-06T17:34:14.667Z,98628.72
2022-12-06T17:36:42.285Z,98633.06
2022-12-06T17:39:10.655Z,98631.38
2022-12-06T17:41:55.851Z,98634.53
2022-12-06T17:44:22.352Z,98626.50
2022-12-06T17:46:48.814Z,98635.75
2022-12-06T17:49:21.857Z,98632.38
2022-12-06T17:51:48.407Z,98630.53
2022-12-06T17:54:15.599Z,98627.75
2022-12-06T17:56:47.626Z,98637.59
2022-12-06T17:59:25.792Z,98640.03
2022-12-06T18:04:40.527Z,98644.59
2022-12-06T18:07:07.168Z,98648.63
2022-12-06T18:09:33.682Z,98652.59
2022-12-06T18:12:01.063Z,98659.25
2022-12-06T18:14:28.186Z,98654.41
2022-12-06T18:16:54.754Z,98657.19
2022-12-06T18:19:22.787Z,98654.31
2022-12-06T18:21:49.659Z,98652.00
2022-12-06T18:24:22.497Z,98653.97
2022-12-06T18:26:50.028Z,98658.03
2022-12-06T18:29:20.026Z,98658.25
2022-12-06T18:31:47.062Z,98651.47
2022-12-06T18:34:13.754Z,98651.69
2022-12-06T18:36:40.962Z,98654.66
2022-12-06T18:39:14.455Z,98648.09
2022-12-06T18:41:42.503Z,98652.09
2022-12-06T18:44:10.143Z,98649.00
2022-12-06T18:46:38.637Z,98652.66
2022-12-06T18:49:05.430Z,98647.72
2022-12-06T18:51:34.327Z,98654.81
2022-12-06T18:54:03.061Z,98653.34
2022-12-06T18:56:30.186Z,98659.09
2022-12-06T18:59:01.480Z,98657.22
2022-12-06T19:01:30.644Z,98660.44
2022-12-06T19:04:03.229Z,98651.66
2022-12-06T19:06:35.441Z,98661.72
2022-12-06T19:09:07.927Z,98661.81
2022-12-06T19:11:42.947Z,98655.13
2022-12-06T19:14:10.183Z,98662.16
2022-12-06T19:16:41.560Z,98662.84
2022-12-06T19:19:16.228Z,98658.19
2022-12-06T19:21:44.623Z,98656.88
2022-12-06T19:24:12.170Z,98662.22
2022-12-06T19:26:38.685Z,98664.88
2022-12-06T19:29:05.776Z,98653.06
2022-12-06T19:31:33.148Z,98652.06
2022-12-06T19:33:59.850Z,98647.69
2022-12-06T19:36:28.824Z,98647.69
2022-12-06T19:39:05.960Z,98645.91
2022-12-06T19:54:33.589Z,98650.84
2022-12-06T19:57:01.109Z,98651.69
2022-12-06T19:59:30.200Z,98651.09
2022-12-06T20:01:58.333Z,98653.38
2022-12-06T20:04:31.343Z,98654.16
2022-12-06T20:06:58.797Z,98650.31
2022-12-06T20:09:27.372Z,98647.84
2022-12-06T20:12:01.464Z,98647.00
2022-12-06T20:14:41.330Z,98653.56
2022-12-06T20:17:11.553Z,98657.81
2022-12-06T20:19:38.786Z,98654.28
2022-12-06T20:22:05.308Z,98654.41
2022-12-06T20:24:31.977Z,98655.53
2022-12-06T20:26:58.476Z,98654.78
2022-12-06T20:29:26.968Z,98654.16
2022-12-06T20:31:56.011Z,98651.44
2022-12-06T20:34:22.444Z,98661.13
2022-12-06T20:36:48.847Z,98664.28
2022-12-06T20:39:24.689Z,98661.97
2022-12-06T20:41:51.555Z,98660.69
2022-12-06T20:44:19.107Z,98660.38
2022-12-06T20:46:47.695Z,98655.09
2022-12-06T20:49:16.044Z,98656.47
2022-12-06T20:51:42.798Z,98660.41
2022-12-06T20:54:11.463Z,98663.03
2022-12-06T20:56:39.351Z,98658.72
2022-12-06T20:59:07.738Z,98663.22
2022-12-06T21:01:37.126Z,98651.97
2022-12-06T21:04:03.724Z,98654.41
2022-12-06T21:06:30.221Z,98656.47
2022-12-06T21:08:56.680Z,98654.75
2022-12-06T21:11:25.033Z,98658.31
2022-12-06T21:13:53.633Z,98655.56
2022-12-06T21:16:27.216Z,98651.56
2022-12-06T21:18:55.891Z,98643.81
2022-12-06T21:21:28.492Z,98648.44
2022-12-06T21:23:57.932Z,98640.91
2022-12-06T21:26:24.347Z,98644.28
2022-12-06T21:28:52.720Z,98648.63
2022-12-06T21:31:19.442Z,98638.59
2022-12-06T21:33:46.060Z,98649.56
2022-12-06T21:36:12.567Z,98645.94
2022-12-06T21:38:39.063Z,98651.44
2022-12-06T21:41:13.550Z,98658.03
2022-12-06T21:43:40.057Z,98655.84
2022-12-06T21:46:21.096Z,98661.19
2022-12-06T21:48:58.383Z,98655.56
2022-12-06T21:51:31.131Z,98662.13
2022-12-06T21:53:58.708Z,98662.44
2022-12-06T21:56:29.635Z,98663.06
2022-12-06T21:58:56.256Z,98655.91
2022-12-06T22:01:24.956Z,98666.22
2022-12-06T22:03:53.598Z,98667.09
2022-12-06T22:06:21.037Z,98660.94
2022-12-06T22:08:49.139Z,98667.66
2022-12-06T22:11:18.603Z,98666.97
2022-12-06T22:13:46.300Z,98671.88
2022-12-06T22:16:13.366Z,98665.72
2022-12-06T22:18:45.390Z,98659.22
2022-12-06T22:21:19.811Z,98662.22
2022-12-06T22:23:47.659Z,98667.06
2022-12-06T22:26:17.693Z,98664.34
2022-12-06T22:28:44.493Z,98663.66
2022-12-06T22:31:17.196Z,98665.59
2022-12-06T22:33:43.760Z,98663.78
2022-12-06T22:36:11.613Z,98669.19
2022-12-06T22:38:38.452Z,98658.47
2022-12-06T22:41:06.063Z,98652.94
2022-12-06T22:43:33.447Z,98655.72
2022-12-06T22:46:09.838Z,98653.91
2022-12-06T22:48:37.295Z,98651.72
2022-12-06T22:51:27.595Z,98657.44
2022-12-06T22:53:56.920Z,98656.06
2022-12-06T22:56:24.688Z,98660.34
2022-12-06T22:58:55.519Z,98657.78
2022-12-06T23:01:24.166Z,98651.75
2022-12-06T23:03:52.091Z,98646.41
2022-12-06T23:06:21.153Z,98653.81
2022-12-06T23:08:48.191Z,98647.91
2022-12-06T23:11:17.715Z,98650.78
2022-12-06T23:13:44.833Z,98651.34
2022-12-06T23:16:14.569Z,98652.44
2022-12-06T23:18:41.829Z,98657.38
2022-12-06T23:21:14.971Z,98658.06
2022-12-06T23:23:44.824Z,98652.72
2022-12-06T23:26:13.542Z,98655.84
2022-12-06T23:28:40.298Z,98648.84
2022-12-06T23:31:23.496Z,98650.81
2022-12-06T23:33:54.899Z,98649.81
2022-12-06T23:36:27.032Z,98653.94
2022-12-06T23:38:53.661Z,98647.34
2022-12-06T23:41:22.465Z,98646.41
2022-12-06T23:43:49.438Z,98645.72
2022-12-06T23:46:22.195Z,98645.72
2022-12-06T23:48:49.485Z,98642.72
2022-12-06T23:51:18.562Z,98650.63
2022-12-06T23:53:49.165Z,98645.69
2022-12-06T23:56:17.507Z,98645.25
2022-12-06T23:58:45.441Z,98646.06
